KSFF/SFF METAR and TAF weather

Enter ICAO airport designator
Station Type Date Time Source
KSFF METAR 2020/01/29 02:53 UTC NOAA

KSFF 290253Z 26003KT 4SM BR OVC018 04/03 A3011 RMK AO2 SLP208 T00390028 53023


Station Type Date Time Source
KSFF Decoded METAR 2020/01/29 02:53 UTC NOAA

FELTS FIELD, WA, United States (KSFF) 47-41N 117-19W 609M
Jan 28, 2020 - 09:53 PM EST / 2020.01.29 0253 UTC
Wind: from the W (260 degrees) at 3 MPH (3 KT):0
Visibility: 4 mile(s):0
Sky conditions: overcast
Weather: mist
Temperature: 39.0 F (3.9 C)
Dew Point: 37.0 F (2.8 C)
Relative Humidity: 92%
Pressure (altimeter): 30.11 in. Hg (1019 hPa)
Pressure tendency: 0.07 inches (2.3 hPa) higher than three hours ago
ob: KSFF 290253Z 26003KT 4SM BR OVC018 04/03 A3011 RMK AO2 SLP208 T00390028 53023
cycle: 3

Station Type Date Time Source
KSFF TAF 2020/01/29 03:27 UTC NOAA

TAF
AMD KSFF 290324Z 2903/2924 VRB03KT 4SM BR OVC018
FM291900 17007KT 5SM -RA BR OVC016

Example: see airport list